This is the latest recevied weather packets stored in our database for station/object DF2AP-13. If no packets are shown the sender has not sent any weather packets the latest 10 day(s).
| Time | Temp. | Humidity | Pressure | Rain* | Wind** | Luminosity | Snow |
|---|---|---|---|---|---|---|---|
| 1777536475 | 11.11° C | 35% | 1033.8 hPa | - | - | - | - |
| 1777535875 | 10.56° C | 35% | 1034 hPa | - | - | - | - |
| 1777535275 | 10° C | 35% | 1033.9 hPa | - | - | - | - |
| 1777534074 | 8.33° C | 40% | 1034.2 hPa | - | - | - | - |
| 1777533475 | 7.78° C | 42% | 1034.4 hPa | - | - | - | - |
| 1777532875 | 7.22° C | 43% | 1034.5 hPa | - | - | - | - |
| 1777532274 | 6.11° C | 44% | 1034.7 hPa | - | - | - | - |
| 1777531675 | 5.56° C | 46% | 1034.8 hPa | - | - | - | - |
| 1777531075 | 5° C | 49% | 1034.9 hPa | - | - | - | - |
| 1777530475 | 3.89° C | 53% | 1034.9 hPa | - | - | - | - |
| 1777529875 | 3.33° C | 56% | 1034.9 hPa | - | - | - | - |
| 1777529275 | 2.78° C | 57% | 1035 hPa | - | - | - | - |
| 1777528675 | 2.78° C | 58% | 1035 hPa | - | - | - | - |
| 1777528075 | 2.22° C | 58% | 1035 hPa | - | - | - | - |
| 1777527475 | 1.67° C | 61% | 1035 hPa | - | - | - | - |
| 1777526875 | 1.11° C | 64% | 1034.9 hPa | - | - | - | - |
| 1777526275 | 0° C | 69% | 1034.9 hPa | - | - | - | - |
| 1777525675 | 0° C | 72% | 1034.8 hPa | - | - | - | - |
| 1777525075 | -0.56° C | 72% | 1034.9 hPa | - | - | - | - |
| 1777524475 | -0.56° C | 72% | 1034.9 hPa | - | - | - | - |
| 1777523875 | -0.56° C | 71% | 1034.7 hPa | - | - | - | - |
| 1777523275 | -0.56° C | 71% | 1034.6 hPa | - | - | - | - |
| 1777522675 | -1.11° C | 70% | 1034.6 hPa | - | - | - | - |
| 1777522075 | -1.11° C | 70% | 1034.6 hPa | - | - | - | - |
| 1777521475 | -1.11° C | 70% | 1034.5 hPa | - | - | - | - |
* Rain since midnight (hover to see other rain measurements)
** Current wind speed in m/s (hover to see current wind gust speed)